Time;durP1;ratioP1;P1;durP2;ratioP2;P2;SDS_P1;SDS_P2;PMS_P1;PMS_P2;Temp;Humidity;BMP_temperature;BMP_pressure;BME280_temperature;BME280_humidity;BME280_pressure;Samples;Min_cycle;Max_cycle;Signal;HPM_P1;HPM_P2
2023/03/26 00:02:29;;;;;;;3.53;2.37;;;7.70;99.90;;;8.25;100.00;97426.25;5225320;28;20219;-64
2023/03/26 00:05:03;;;;;;;2.57;2.27;;;7.60;99.90;;;8.21;100.00;97424.28;5229414;28;21719;-63
2023/03/26 00:07:36;;;;;;;3.63;2.20;;;7.50;99.90;;;8.10;100.00;97431.31;5231018;28;20201;-63
2023/03/26 00:10:10;;;;;;;2.90;2.57;;;7.50;99.90;;;7.96;100.00;97427.94;5237865;28;20996;-63
2023/03/26 00:12:43;;;;;;;2.60;2.40;;;7.40;99.90;;;7.86;100.00;97425.63;5224392;28;20424;-64
2023/03/26 00:15:17;;;;;;;4.37;2.07;;;7.30;99.90;;;7.85;100.00;97428.97;5236173;28;20307;-64
2023/03/26 00:17:53;;;;;;;3.03;2.40;;;7.30;99.90;;;7.73;100.00;97430.78;5226228;28;20205;-64
2023/03/26 00:20:26;;;;;;;4.60;2.70;;;7.10;99.90;;;7.71;100.00;97427.25;5234329;28;20623;-64
2023/03/26 00:23:01;;;;;;;3.70;2.40;;;7.00;99.90;;;7.62;100.00;97428.44;5240334;28;20211;-64
2023/03/26 00:25:37;;;;;;;3.00;2.70;;;7.00;99.90;;;7.54;100.00;97427.09;5235193;28;20260;-64
2023/03/26 00:28:10;;;;;;;5.30;2.90;;;6.90;99.90;;;7.58;100.00;97433.22;5228993;28;20208;-63
2023/03/26 00:30:43;;;;;;;3.13;2.50;;;6.90;99.90;;;7.58;100.00;97428.13;5230790;28;20197;-64
2023/03/26 00:33:20;;;;;;;3.47;2.60;;;6.90;99.90;;;7.50;100.00;97432.78;5237503;28;20240;-63
2023/03/26 00:35:57;;;;;;;2.50;2.30;;;6.80;99.90;;;7.40;100.00;97432.97;5237694;28;21056;-64
2023/03/26 00:38:32;;;;;;;2.93;2.57;;;6.80;99.90;;;7.38;100.00;97429.44;5226395;28;20647;-63
2023/03/26 00:41:16;;;;;;;5.43;2.70;;;6.70;99.90;;;7.22;100.00;97436.13;5230903;28;20196;-64
2023/03/26 00:43:51;;;;;;;4.27;2.73;;;6.60;99.90;;;7.23;100.00;97432.78;5238725;28;20217;-63
2023/03/26 00:46:24;;;;;;;4.73;3.57;;;6.60;99.90;;;7.27;100.00;97441.50;5225565;28;20217;-63
2023/03/26 00:48:59;;;;;;;4.53;3.10;;;6.50;99.90;;;7.11;100.00;97424.41;5230217;28;20292;-64
2023/03/26 00:51:32;;;;;;;3.77;2.93;;;6.50;99.90;;;7.12;100.00;97433.78;5236243;28;20650;-63
2023/03/26 00:54:07;;;;;;;4.90;3.07;;;6.50;99.90;;;7.05;100.00;97429.09;5234818;28;20225;-63
2023/03/26 00:56:40;;;;;;;5.63;3.07;;;6.40;99.90;;;7.05;100.00;97424.03;5230833;28;20232;-63
2023/03/26 00:59:13;;;;;;;4.97;2.90;;;6.40;99.90;;;7.04;100.00;97422.28;5237377;28;20645;-64
2023/03/26 01:01:46;;;;;;;5.53;3.23;;;6.40;99.90;;;7.06;100.00;97413.06;5228897;28;20506;-63
2023/03/26 01:04:29;;;;;;;4.60;2.70;;;6.40;99.90;;;7.10;100.00;97417.56;5236442;28;20265;-63
2023/03/26 01:07:10;;;;;;;4.20;2.90;;;6.40;99.90;;;7.07;100.00;97416.47;5228307;28;20229;-63
2023/03/26 01:09:49;;;;;;;3.43;3.03;;;6.40;99.90;;;7.07;100.00;97416.47;5243798;28;20206;-64
2023/03/26 01:12:26;;;;;;;4.53;3.27;;;6.40;99.90;;;7.04;100.00;97412.13;5233338;28;20223;-63
2023/03/26 01:15:02;;;;;;;3.20;2.83;;;6.40;99.90;;;7.01;100.00;97401.75;5240470;28;20227;-63
2023/03/26 01:17:36;;;;;;;4.30;2.83;;;6.30;99.90;;;7.25;100.00;97391.38;5231255;28;20690;-64
2023/03/26 01:20:20;;;;;;;3.73;3.00;;;6.50;99.90;;;7.06;100.00;97394.41;5245157;28;20585;-62
2023/03/26 01:23:01;;;;;;;3.73;3.00;;;6.40;99.90;;;6.90;100.00;97390.03;5240613;28;20212;-64
2023/03/26 01:25:41;;;;;;;4.67;3.27;;;6.30;99.90;;;6.91;100.00;97386.69;5233537;28;20221;-63
2023/03/26 01:28:16;;;;;;;4.57;2.97;;;6.30;99.90;;;6.98;100.00;97382.13;5237327;28;20192;-63
2023/03/26 01:30:57;;;;;;;3.57;3.10;;;6.30;99.90;;;7.13;100.00;97376.25;5242536;28;20292;-64
2023/03/26 01:33:37;;;;;;;3.77;2.70;;;6.40;99.90;;;7.20;100.00;97366.53;5240271;28;20289;-64
2023/03/26 01:36:18;;;;;;;3.03;2.67;;;6.60;99.90;;;7.20;100.00;97374.16;5236525;28;20828;-63
2023/03/26 01:39:02;;;;;;;5.57;3.20;;;6.60;99.90;;;7.10;100.00;97359.13;5229762;28;21818;-64
2023/03/26 01:41:44;;;;;;;4.63;3.33;;;6.60;99.90;;;7.11;100.00;97360.00;5238195;28;20235;-63
2023/03/26 01:44:24;;;;;;;4.07;2.60;;;6.60;99.90;;;7.08;100.00;97353.06;5242534;28;20217;-63
2023/03/26 01:47:00;;;;;;;3.83;2.90;;;6.50;99.90;;;7.08;100.00;97355.59;5231538;28;20219;-63
2023/03/26 01:49:33;;;;;;;3.97;2.53;;;6.50;99.90;;;7.08;100.00;97336.94;5234545;28;20668;-64
2023/03/26 01:52:13;;;;;;;5.13;3.07;;;6.50;99.90;;;7.06;100.00;97333.44;5236812;28;20285;-63
2023/03/26 01:54:46;;;;;;;3.10;2.80;;;6.40;99.90;;;7.13;100.00;97336.44;5234940;28;20222;-63
2023/03/26 01:57:34;;;;;;;3.93;3.00;;;6.50;99.90;;;7.24;100.00;97339.66;5226733;28;20200;-64
2023/03/26 02:00:18;;;;;;;4.03;2.50;;;6.50;99.90;;;7.21;100.00;97336.91;5232091;28;20200;-63
2023/03/26 02:03:16;;;;;;;4.70;3.20;;;6.50;99.90;;;7.45;100.00;97325.69;5232032;28;20204;-63
2023/03/26 02:05:55;;;;;;;3.33;2.60;;;6.80;99.90;;;7.45;100.00;97329.91;5230146;28;20240;-64
2023/03/26 02:08:35;;;;;;;4.10;2.77;;;6.80;99.90;;;7.46;100.00;97321.47;5232669;28;20254;-63
2023/03/26 02:11:13;;;;;;;4.03;2.40;;;6.80;99.90;;;7.38;100.00;97315.97;5225391;28;20215;-64
2023/03/26 02:13:47;;;;;;;2.80;2.33;;;6.80;99.90;;;7.37;100.00;97310.75;5232052;28;20248;-64
2023/03/26 02:16:21;;;;;;;4.03;2.87;;;6.80;99.90;;;7.31;100.00;97307.84;5239837;28;20584;-64
2023/03/26 02:18:58;;;;;;;4.00;2.83;;;6.70;99.90;;;7.13;100.00;97300.88;5227303;28;20236;-64
2023/03/26 02:21:32;;;;;;;4.37;3.07;;;6.60;99.90;;;7.09;100.00;97293.81;5238741;28;20200;-64
2023/03/26 02:24:06;;;;;;;2.70;2.27;;;6.50;99.90;;;7.15;100.00;97299.31;5225213;28;20278;-64
2023/03/26 02:26:39;;;;;;;2.70;2.50;;;6.50;99.90;;;7.12;100.00;97291.47;5231256;28;20227;-64
2023/03/26 02:29:19;;;;;;;4.97;3.07;;;6.40;99.90;;;7.10;100.00;97290.53;5232285;28;20434;-64
2023/03/26 02:31:52;;;;;;;4.63;2.60;;;6.40;99.90;;;6.93;100.00;97286.06;5234567;28;20657;-64
2023/03/26 02:34:25;;;;;;;4.43;2.90;;;6.30;99.90;;;6.83;100.00;97283.72;5234539;28;20696;-64
2023/03/26 02:36:58;;;;;;;3.27;2.60;;;6.10;99.90;;;6.82;100.00;97277.78;5234130;28;20215;-64
2023/03/26 02:39:31;;;;;;;3.10;2.87;;;6.00;99.90;;;6.75;100.00;97278.16;5236519;28;20580;-63
2023/03/26 02:42:04;;;;;;;3.37;2.70;;;6.00;99.90;;;6.63;100.00;97280.81;5239622;28;20720;-63
2023/03/26 02:44:39;;;;;;;4.20;3.03;;;6.00;99.90;;;6.57;100.00;97265.22;5236816;28;20451;-63
2023/03/26 02:47:12;;;;;;;3.50;3.00;;;5.90;99.90;;;6.56;100.00;97267.69;5234823;28;20275;-63
2023/03/26 02:49:46;;;;;;;2.93;2.73;;;5.90;99.90;;;6.54;100.00;97275.19;5238086;28;20236;-63
2023/03/26 02:52:19;;;;;;;3.00;2.57;;;5.90;99.90;;;6.64;100.00;97262.28;5238430;28;20196;-63
2023/03/26 02:54:52;;;;;;;5.73;3.00;;;5.90;99.90;;;6.66;100.00;97258.16;5227844;28;20724;-64
2023/03/26 02:57:26;;;;;;;2.73;2.13;;;5.90;99.90;;;6.62;100.00;97268.94;5234808;28;20197;-63
2023/03/26 03:00:07;;;;;;;4.17;2.60;;;5.80;99.90;;;6.40;100.00;97263.28;5234548;28;20597;-63
2023/03/26 03:02:43;;;;;;;3.33;3.00;;;5.70;99.90;;;6.18;100.00;97254.31;5231698;28;20212;-63
2023/03/26 03:05:17;;;;;;;5.03;2.80;;;5.60;99.90;;;6.19;100.00;97247.56;5236856;28;20264;-64
2023/03/26 03:07:50;;;;;;;3.13;2.83;;;5.60;99.90;;;6.26;100.00;97249.72;5241969;28;20306;-63
2023/03/26 03:10:25;;;;;;;2.97;2.67;;;5.70;99.90;;;6.40;100.00;97240.44;5233513;28;20207;-63
2023/03/26 03:12:59;;;;;;;3.70;3.07;;;5.70;99.90;;;6.27;100.00;97233.72;5238237;28;20211;-64
2023/03/26 03:15:33;;;;;;;3.67;3.17;;;5.60;99.90;;;6.24;100.00;97239.47;5235669;28;20240;-64
2023/03/26 03:18:07;;;;;;;4.40;2.90;;;5.60;99.90;;;6.28;100.00;97236.34;5238588;28;20200;-63
2023/03/26 03:20:40;;;;;;;4.47;2.73;;;5.70;99.90;;;6.30;100.00;97227.19;5230320;28;20212;-64
2023/03/26 03:23:13;;;;;;;4.40;3.23;;;5.70;99.90;;;6.30;100.00;97218.69;5228181;28;20595;-64
2023/03/26 03:25:47;;;;;;;4.00;3.57;;;5.70;99.90;;;6.30;100.00;97232.25;5234912;28;20200;-63
2023/03/26 03:28:21;;;;;;;5.20;3.33;;;5.70;99.90;;;6.39;100.00;97218.38;5238920;28;20226;-63
2023/03/26 03:30:57;;;;;;;4.23;2.83;;;5.80;99.90;;;6.28;100.00;97220.25;5228922;28;20217;-63
2023/03/26 03:33:31;;;;;;;4.50;2.73;;;5.70;99.90;;;6.27;100.00;97223.56;5226992;28;20204;-63
2023/03/26 03:36:09;;;;;;;4.07;3.00;;;5.70;99.90;;;6.28;100.00;97216.03;5236908;28;20209;-63
2023/03/26 03:38:52;;;;;;;4.20;2.83;;;5.60;99.90;;;6.37;100.00;97209.78;5237950;28;20295;-64
2023/03/26 03:41:25;;;;;;;3.20;2.87;;;5.70;99.90;;;6.39;100.00;97210.78;5233740;28;20657;-63
2023/03/26 03:44:00;;;;;;;3.97;3.00;;;5.70;99.90;;;6.16;100.00;97214.41;5231425;28;20230;-64
2023/03/26 03:46:34;;;;;;;2.60;2.40;;;5.60;99.90;;;6.18;100.00;97210.28;5237536;28;20196;-63
2023/03/26 03:49:08;;;;;;;5.10;2.73;;;5.60;99.90;;;6.26;100.00;97209.97;5229677;28;20224;-64
2023/03/26 03:51:41;;;;;;;3.33;2.87;;;5.60;99.90;;;6.36;100.00;97202.97;5231671;28;20323;-63
2023/03/26 03:54:14;;;;;;;3.90;3.43;;;5.70;99.90;;;6.40;100.00;97192.22;5239166;28;20229;-63
2023/03/26 03:56:48;;;;;;;3.77;3.07;;;5.70;99.90;;;6.21;100.00;97196.16;5234364;28;20306;-64
2023/03/26 03:59:21;;;;;;;3.70;3.40;;;5.60;99.90;;;5.90;100.00;97185.69;5230984;28;20212;-64
2023/03/26 04:01:55;;;;;;;5.13;3.07;;;5.50;99.90;;;5.90;100.00;97185.69;5227808;28;20204;-63
2023/03/26 04:04:28;;;;;;;4.17;3.10;;;5.40;99.90;;;5.99;100.00;97181.22;5227214;28;20229;-64
2023/03/26 04:07:01;;;;;;;3.37;2.97;;;5.40;99.90;;;6.13;100.00;97169.41;5225220;28;20258;-65
2023/03/26 04:09:35;;;;;;;3.63;2.87;;;5.50;99.90;;;6.22;100.00;97170.00;5227633;28;22213;-64
2023/03/26 04:12:08;;;;;;;3.40;2.67;;;5.60;99.90;;;6.35;100.00;97164.00;5229043;28;20287;-65
2023/03/26 04:14:41;;;;;;;4.40;2.87;;;5.70;99.90;;;6.44;100.00;97156.97;5238328;28;20227;-64
2023/03/26 04:17:15;;;;;;;3.87;2.70;;;5.70;99.90;;;6.41;100.00;97164.41;5226589;28;20653;-64
2023/03/26 04:19:51;;;;;;;3.30;3.00;;;5.70;99.90;;;6.36;100.00;97157.28;5229109;28;20704;-64
2023/03/26 04:22:35;;;;;;;2.73;2.53;;;5.70;99.90;;;6.37;100.00;97159.03;5229434;28;20202;-65
2023/03/26 04:25:09;;;;;;;5.53;4.50;;;5.70;99.90;;;6.36;100.00;97152.22;5233901;28;20243;-64
2023/03/26 04:27:43;;;;;;;4.37;3.10;;;5.70;99.90;;;6.37;100.00;97149.75;5238239;28;20687;-64
2023/03/26 04:30:20;;;;;;;4.10;3.10;;;5.70;99.90;;;6.39;100.00;97137.16;5237909;28;20197;-63
2023/03/26 04:32:57;;;;;;;4.60;3.40;;;5.80;99.90;;;6.44;100.00;97136.66;5241201;28;20661;-65
2023/03/26 04:35:34;;;;;;;3.53;3.00;;;5.80;99.90;;;6.48;100.00;97127.56;5235149;28;20637;-64
2023/03/26 04:38:07;;;;;;;3.83;3.00;;;5.80;99.90;;;6.49;100.00;97129.31;5236873;28;20197;-65
2023/03/26 04:40:41;;;;;;;3.43;2.90;;;5.80;99.90;;;6.40;100.00;97118.59;5233111;28;20211;-65
2023/03/26 04:43:17;;;;;;;3.93;3.03;;;5.80;99.90;;;6.48;100.00;97100.53;5235511;28;20208;-64
2023/03/26 04:45:51;;;;;;;5.40;3.70;;;5.80;99.90;;;6.41;100.00;97097.50;5230337;28;20207;-64
2023/03/26 04:48:25;;;;;;;4.60;3.17;;;5.80;99.90;;;6.41;100.00;97100.03;5239203;28;20228;-64
2023/03/26 04:51:00;;;;;;;3.37;3.07;;;5.80;99.90;;;6.35;100.00;97087.00;5235023;28;20242;-64
2023/03/26 04:53:35;;;;;;;3.73;3.13;;;5.80;99.90;;;6.41;100.00;97083.19;5228632;28;20562;-64
2023/03/26 04:56:18;;;;;;;5.90;3.17;;;5.80;99.90;;;6.37;100.00;97087.97;5240625;28;20283;-64
2023/03/26 04:58:51;;;;;;;3.27;2.93;;;5.80;99.90;;;6.29;100.00;97085.84;5234838;28;20200;-65
2023/03/26 05:01:27;;;;;;;5.47;3.40;;;5.80;99.90;;;6.35;100.00;97084.44;5239981;28;20228;-64
2023/03/26 05:04:01;;;;;;;3.60;3.10;;;5.80;99.90;;;6.27;100.00;97082.34;5226746;28;20233;-63
2023/03/26 05:06:36;;;;;;;5.90;3.00;;;5.70;99.90;;;6.31;100.00;97079.19;5238164;28;20200;-65
2023/03/26 05:09:10;;;;;;;3.47;3.17;;;5.70;99.90;;;6.34;100.00;97072.56;5240550;28;20236;-65
2023/03/26 05:11:43;;;;;;;4.97;3.23;;;5.80;99.90;;;6.37;100.00;97065.13;5235931;28;20199;-65
2023/03/26 05:14:17;;;;;;;3.33;3.00;;;5.80;99.90;;;6.60;100.00;97057.22;5230862;28;20229;-64
2023/03/26 05:16:52;;;;;;;5.80;3.00;;;5.90;99.90;;;6.52;100.00;97058.41;5232639;28;20295;-65
2023/03/26 05:19:26;;;;;;;4.37;3.23;;;5.90;99.90;;;6.44;100.00;97052.00;5225726;28;20208;-63
2023/03/26 05:21:59;;;;;;;4.63;3.13;;;5.80;99.90;;;6.39;100.00;97051.75;5225598;28;20199;-65
2023/03/26 05:24:32;;;;;;;3.10;2.80;;;5.80;99.90;;;6.46;100.00;97060.59;5234982;28;20220;-64
2023/03/26 05:27:06;;;;;;;4.83;3.87;;;5.90;99.90;;;6.51;100.00;97057.53;5229326;28;20198;-65
2023/03/26 05:29:39;;;;;;;4.17;3.10;;;5.90;99.90;;;6.51;100.00;97047.41;5236592;28;20695;-64
2023/03/26 05:32:13;;;;;;;3.93;3.57;;;5.90;99.90;;;6.48;100.00;97046.34;5228640;28;20205;-64
2023/03/26 05:34:47;;;;;;;4.90;3.63;;;5.90;99.90;;;6.39;100.00;97050.88;5240771;28;20212;-64
2023/03/26 05:37:23;;;;;;;3.70;3.40;;;5.80;99.90;;;6.50;100.00;97049.84;5236277;28;20683;-65
2023/03/26 05:39:57;;;;;;;3.97;3.57;;;5.90;99.90;;;6.61;100.00;97046.28;5230789;28;20662;-65
2023/03/26 05:42:30;;;;;;;4.37;3.70;;;5.90;99.90;;;6.59;100.00;97044.44;5237080;28;20192;-64
2023/03/26 05:45:04;;;;;;;3.90;3.40;;;5.90;99.90;;;6.50;100.00;97038.03;5230345;28;20236;-65
2023/03/26 05:47:37;;;;;;;4.10;3.80;;;5.90;99.90;;;6.50;100.00;97034.63;5232451;28;20216;-64
2023/03/26 05:50:12;;;;;;;4.23;3.43;;;5.90;99.90;;;6.34;100.00;97037.91;5227348;28;20597;-64
2023/03/26 05:52:45;;;;;;;3.70;3.30;;;5.90;99.90;;;6.39;100.00;97026.38;5229440;28;20201;-64
2023/03/26 05:55:18;;;;;;;4.47;3.43;;;5.90;99.90;;;6.50;100.00;97025.34;5229533;28;20311;-65
2023/03/26 05:57:52;;;;;;;5.33;3.87;;;5.90;99.90;;;6.63;100.00;97026.94;5231074;28;20205;-65
2023/03/26 06:00:25;;;;;;;6.27;3.87;;;6.00;99.90;;;6.64;100.00;97022.72;5232023;28;20287;-63
2023/03/26 06:02:58;;;;;;;5.03;3.87;;;6.10;99.90;;;6.59;100.00;97013.97;5221875;28;20202;-64
2023/03/26 06:05:36;;;;;;;4.87;4.10;;;6.00;99.90;;;6.64;100.00;97015.09;5227589;28;20221;-64
2023/03/26 06:08:09;;;;;;;7.30;3.90;;;6.00;99.90;;;6.73;100.00;97008.91;5240572;28;20205;-64
2023/03/26 06:10:43;;;;;;;6.97;4.53;;;6.00;99.90;;;6.63;100.00;97016.78;5229568;28;20204;-65
2023/03/26 06:13:17;;;;;;;5.70;4.33;;;6.10;99.90;;;6.67;100.00;97000.06;5226881;28;20219;-65
2023/03/26 06:15:52;;;;;;;5.53;4.10;;;6.10;99.90;;;6.60;100.00;97006.44;5229020;28;20207;-65
2023/03/26 06:18:25;;;;;;;5.50;4.47;;;6.10;99.90;;;6.76;100.00;97009.09;5230929;28;20213;-65
2023/03/26 06:21:00;;;;;;;4.83;4.37;;;6.20;99.90;;;6.76;100.00;96993.84;5233123;28;20209;-64
2023/03/26 06:23:33;;;;;;;5.73;4.90;;;6.20;99.90;;;6.66;100.00;96981.41;5230840;28;20377;-65
2023/03/26 06:26:06;;;;;;;5.07;4.20;;;6.20;99.90;;;6.75;100.00;96994.66;5234439;28;20207;-65
2023/03/26 06:28:40;;;;;;;6.47;4.80;;;6.20;99.90;;;6.77;100.00;96993.06;5222015;28;20227;-64
2023/03/26 06:31:13;;;;;;;7.10;4.90;;;6.20;99.90;;;6.82;100.00;96978.09;5224437;28;20204;-65
2023/03/26 06:33:47;;;;;;;6.67;4.37;;;6.30;99.90;;;6.93;100.00;96983.78;5229163;28;20336;-64
2023/03/26 06:36:22;;;;;;;6.40;3.97;;;6.30;99.90;;;6.93;100.00;96986.31;5228486;28;20204;-64
2023/03/26 06:38:55;;;;;;;4.77;3.90;;;6.40;99.90;;;6.96;100.00;96981.41;5232818;28;20288;-64
2023/03/26 06:41:28;;;;;;;7.93;4.27;;;6.40;99.90;;;6.97;100.00;96973.00;5223685;28;20223;-65
2023/03/26 06:44:01;;;;;;;6.53;4.20;;;6.40;99.90;;;6.94;100.00;96960.13;5224969;28;20703;-65
2023/03/26 06:46:35;;;;;;;6.67;4.13;;;6.40;99.90;;;7.00;100.00;96945.22;5225858;28;20205;-65
2023/03/26 06:49:08;;;;;;;5.43;3.90;;;6.50;99.90;;;7.02;100.00;96943.66;5228524;28;20224;-64
2023/03/26 06:51:42;;;;;;;6.07;3.87;;;6.50;99.90;;;6.98;100.00;96934.09;5228428;28;20200;-64
2023/03/26 06:54:15;;;;;;;7.40;3.60;;;6.40;99.90;;;6.95;100.00;96933.91;5227245;28;20303;-64
2023/03/26 06:56:49;;;;;;;6.37;4.67;;;6.40;99.90;;;7.10;100.00;96922.09;5227897;28;20207;-65
2023/03/26 06:59:22;;;;;;;6.50;5.20;;;6.50;99.90;;;7.15;100.00;96923.22;5227408;28;20712;-64
2023/03/26 07:01:55;;;;;;;6.60;4.30;;;6.50;99.90;;;7.05;100.00;96915.00;5228437;28;20209;-66
2023/03/26 07:04:28;;;;;;;5.17;4.47;;;6.40;99.90;;;7.02;100.00;96904.69;5232897;28;21065;-62
2023/03/26 07:07:03;;;;;;;5.43;4.40;;;6.40;99.90;;;7.02;100.00;96909.75;5231567;28;20288;-66
2023/03/26 07:09:36;;;;;;;5.27;3.87;;;6.40;99.90;;;7.00;100.00;96913.06;5230377;28;20285;-67
2023/03/26 07:12:09;;;;;;;6.77;4.40;;;6.50;99.90;;;7.07;100.00;96904.13;5235039;28;20619;-65
2023/03/26 07:14:42;;;;;;;7.30;4.20;;;6.50;99.90;;;7.15;100.00;96897.81;5231706;28;20224;-66
2023/03/26 07:17:15;;;;;;;8.97;4.30;;;6.60;99.90;;;7.28;100.00;96896.78;5226702;28;20704;-65
2023/03/26 07:19:49;;;;;;;6.83;4.90;;;6.70;99.90;;;7.22;100.00;96902.41;5226450;28;20665;-65
2023/03/26 07:22:25;;;;;;;7.77;6.97;;;6.60;99.90;;;7.09;100.00;96889.81;5228397;28;20619;-66
2023/03/26 07:24:59;;;;;;;8.23;5.53;;;6.60;99.90;;;7.08;100.00;96877.94;5227333;28;20231;-65
2023/03/26 07:27:45;;;;;;;6.40;5.80;;;6.50;99.90;;;7.05;100.00;96875.22;5224234;28;20305;-65
2023/03/26 07:30:25;;;;;;;5.33;4.47;;;6.60;99.90;;;7.15;100.00;96876.59;5235097;28;20706;-64
2023/03/26 07:33:03;;;;;;;5.63;3.87;;;6.60;99.90;;;7.56;100.00;96871.19;5222958;28;20308;-64
2023/03/26 07:35:42;;;;;;;4.37;3.50;;;6.90;99.90;;;7.57;100.00;96855.13;5226600;28;20228;-65
2023/03/26 07:38:37;;;;;;;4.67;3.53;;;6.90;99.90;;;7.73;100.00;96848.31;5230709;28;20204;-66
2023/03/26 07:41:19;;;;;;;5.13;3.27;;;7.20;99.90;;;7.88;100.00;96838.91;5232536;28;20199;-63
2023/03/26 07:44:11;;;;;;;6.27;3.20;;;7.30;99.90;;;8.05;100.00;96843.16;5235422;28;20304;-66
2023/03/26 07:46:46;;;;;;;7.00;4.17;;;7.40;99.90;;;7.98;100.00;96828.38;5231652;28;20291;-66
2023/03/26 07:49:21;;;;;;;5.40;3.50;;;7.40;99.90;;;7.98;99.61;96825.81;5235932;28;20223;-64
2023/03/26 07:51:54;;;;;;;5.33;3.73;;;7.50;99.90;;;7.89;100.00;96826.25;5231785;28;20211;-64
2023/03/26 07:54:29;;;;;;;6.47;3.37;;;7.40;99.90;;;7.82;100.00;96828.41;5229580;28;20946;-65
2023/03/26 07:57:08;;;;;;;6.67;3.57;;;7.30;99.90;;;7.93;100.00;96821.34;5228965;28;20215;-65
2023/03/26 07:59:51;;;;;;;4.97;3.20;;;7.40;99.90;;;7.93;100.00;96814.56;5237003;28;20266;-63
2023/03/26 08:02:53;;;;;;;6.77;3.67;;;7.40;99.90;;;7.98;100.00;96825.81;5232800;28;20200;-65
2023/03/26 08:05:29;;;;;;;4.70;3.27;;;7.40;99.90;;;8.02;99.93;96806.53;5229947;28;20303;-65
2023/03/26 08:08:15;;;;;;;5.13;2.77;;;7.40;99.90;;;7.91;100.00;96803.44;5233533;28;20295;-66
2023/03/26 08:11:07;;;;;;;4.77;2.97;;;7.40;99.90;;;7.90;100.00;96805.09;5226634;28;20706;-64
2023/03/26 08:13:56;;;;;;;4.80;2.83;;;7.40;99.90;;;7.88;100.00;96800.75;5229212;28;20338;-65
2023/03/26 08:16:36;;;;;;;4.17;3.23;;;7.40;99.90;;;7.84;100.00;96801.34;5226925;28;20288;-66
2023/03/26 08:19:28;;;;;;;5.37;3.87;;;7.40;99.90;;;7.82;100.00;96797.88;5229712;28;20212;-66
2023/03/26 08:22:12;;;;;;;6.03;3.47;;;7.40;99.90;;;7.86;100.00;96804.88;5228167;28;20209;-65
2023/03/26 08:25:16;;;;;;;4.83;3.63;;;7.30;99.90;;;7.87;100.00;96791.38;5231394;28;20319;-66
2023/03/26 08:28:16;;;;;;;5.73;3.37;;;7.40;99.90;;;7.87;100.00;96787.16;5230008;28;20259;-64
2023/03/26 08:30:53;;;;;;;6.33;3.43;;;7.40;99.90;;;7.92;100.00;96789.03;5227703;28;20214;-65
2023/03/26 08:33:28;;;;;;;4.93;3.27;;;7.40;99.90;;;7.84;100.00;96787.00;5234041;28;20200;-65
2023/03/26 08:36:01;;;;;;;3.17;2.87;;;7.40;99.90;;;7.88;100.00;96786.34;5227467;28;20206;-64
2023/03/26 08:38:34;;;;;;;5.57;3.50;;;7.40;99.90;;;7.89;100.00;96784.66;5240064;28;20203;-65
2023/03/26 08:41:46;;;;;;;8.23;3.93;;;7.40;99.90;;;7.82;100.00;96787.72;5239994;28;20640;-64
2023/03/26 08:45:19;;;;;;;5.77;4.07;;;7.40;99.90;;;7.71;100.00;96779.53;5236789;28;20220;-65
2023/03/26 08:48:59;;;;;;;10.53;6.23;;;7.30;99.90;;;7.64;100.00;96770.75;5227449;28;20200;-66
2023/03/26 08:52:15;;;;;;;7.87;3.83;;;7.20;99.90;;;7.58;100.00;96767.88;5178114;28;21270;-65
2023/03/26 08:55:20;;;;;;;7.57;4.13;;;7.20;99.90;;;7.55;100.00;96772.78;5180799;28;20231;-63
2023/03/26 08:58:52;;;;;;;6.57;4.37;;;7.20;99.90;;;7.77;100.00;96768.81;5233248;28;20204;-66
2023/03/26 09:02:11;;;;;;;6.53;3.53;;;7.30;99.90;;;7.84;100.00;96746.31;5225397;28;20266;-64
2023/03/26 09:05:34;;;;;;;7.50;4.37;;;7.30;99.90;;;7.69;100.00;96750.59;5219682;28;20583;-65
2023/03/26 09:08:54;;;;;;;6.67;4.37;;;7.20;99.90;;;7.70;100.00;96744.75;5227361;28;20296;-64
2023/03/26 09:12:16;;;;;;;7.80;3.90;;;7.20;99.90;;;7.88;100.00;96735.47;5231815;28;20225;-63
2023/03/26 09:15:28;;;;;;;4.87;3.97;;;7.30;99.90;;;7.98;100.00;96724.06;5226706;28;20232;-63
2023/03/26 09:19:03;;;;;;;7.50;4.40;;;7.40;99.90;;;7.90;100.00;96736.41;5233267;28;20201;-64
2023/03/26 09:22:30;;;;;;;8.53;4.80;;;7.40;99.90;;;7.98;100.00;96724.06;5224219;28;20189;-65
2023/03/26 09:25:30;;;;;;;7.50;5.10;;;7.50;99.90;;;8.12;100.00;96728.13;5180078;28;20218;-66
2023/03/26 09:28:50;;;;;;;8.80;5.77;;;7.50;99.90;;;8.29;100.00;96728.06;5225579;28;20323;-66
2023/03/26 09:32:01;;;;;;;9.73;5.67;;;7.80;99.90;;;8.57;100.00;96718.41;5224930;28;20217;-66
2023/03/26 09:34:51;;;;;;;7.17;5.17;;;7.90;99.90;;;8.77;100.00;96715.91;5222525;28;20217;-65
2023/03/26 09:37:35;;;;;;;7.80;4.70;;;8.20;99.90;;;9.09;100.00;96713.91;5227173;28;20628;-64
2023/03/26 09:40:37;;;;;;;7.23;4.40;;;8.50;99.90;;;9.13;100.00;96725.97;5225534;28;20213;-65
2023/03/26 09:43:44;;;;;;;5.43;3.77;;;8.60;99.90;;;9.16;100.00;96711.72;5232786;28;20263;-64
2023/03/26 09:46:30;;;;;;;8.77;4.10;;;8.70;99.90;;;9.21;100.00;96722.09;5231341;28;20669;-65
2023/03/26 09:49:21;;;;;;;5.50;3.60;;;8.70;99.90;;;9.42;100.00;96724.72;5236032;28;20208;-63
2023/03/26 09:52:42;;;;;;;4.87;3.20;;;8.90;99.90;;;9.47;100.00;96724.09;5232824;28;20722;-65
2023/03/26 09:55:45;;;;;;;6.53;3.90;;;9.00;99.90;;;9.58;100.00;96700.72;5224362;28;20236;-63
2023/03/26 09:58:42;;;;;;;3.87;3.53;;;9.10;99.90;;;9.76;100.00;96701.50;5231563;28;20196;-65
2023/03/26 10:01:20;;;;;;;5.13;3.77;;;9.30;99.90;;;9.99;100.00;96702.44;5228399;28;20227;-66
2023/03/26 10:04:22;;;;;;;4.70;3.23;;;9.50;99.90;;;10.06;100.00;96701.84;5226060;28;20234;-63
2023/03/26 10:07:05;;;;;;;4.77;4.00;;;9.60;99.90;;;10.29;100.00;96707.03;5229497;28;20204;-63
2023/03/26 10:09:51;;;;;;;5.47;3.25;;;9.80;99.90;;;10.32;100.00;96697.81;5222829;28;20312;-64
2023/03/26 10:12:37;;;;;;;6.88;3.38;;;9.80;99.90;;;10.57;100.00;96706.44;5225435;28;20221;-66
2023/03/26 10:15:31;;;;;;;4.28;3.38;;;10.00;99.90;;;10.76;100.00;96703.75;5231991;28;20224;-64
2023/03/26 10:18:17;;;;;;;3.92;3.22;;;10.20;99.90;;;10.69;100.00;96699.22;5227487;28;20209;-65
2023/03/26 10:21:08;;;;;;;4.03;3.17;;;10.10;99.90;;;10.76;100.00;96702.91;5230196;28;20189;-63
2023/03/26 10:24:07;;;;;;;4.53;3.13;;;10.20;99.90;;;10.96;100.00;96691.72;5231147;28;20248;-63
2023/03/26 10:26:53;;;;;;;3.40;2.40;;;10.40;99.90;;;10.90;100.00;96699.19;5231740;28;20571;-62
2023/03/26 10:30:23;;;;;;;3.00;2.08;;;10.50;99.90;;;10.81;100.00;96681.78;5227012;28;20543;-64
2023/03/26 10:33:08;;;;;;;3.08;2.53;;;10.30;99.90;;;10.99;100.00;96678.19;5230131;28;20200;-64
2023/03/26 10:36:02;;;;;;;2.95;2.20;;;10.60;99.90;;;11.05;100.00;96686.94;5235969;28;20216;-63
2023/03/26 10:39:15;;;;;;;4.07;2.50;;;10.60;99.90;;;11.12;100.00;96688.00;5231909;28;20241;-64
2023/03/26 10:42:37;;;;;;;4.75;2.67;;;10.70;99.90;;;11.20;100.00;96676.38;5211470;28;20689;-63
2023/03/26 10:45:31;;;;;;;3.35;2.25;;;10.70;99.90;;;11.17;100.00;96680.53;5232397;28;20675;-63
2023/03/26 10:48:24;;;;;;;1.98;1.80;;;10.80;99.90;;;11.18;100.00;96683.13;5225194;28;20243;-64
2023/03/26 10:51:17;;;;;;;2.88;2.53;;;10.80;99.90;;;11.14;100.00;96673.59;5230969;28;20208;-63
2023/03/26 10:53:54;;;;;;;2.65;2.20;;;10.80;99.90;;;11.33;100.00;96671.69;5223089;28;20619;-63
2023/03/26 10:56:33;;;;;;;2.47;2.28;;;11.00;99.90;;;11.68;100.00;96668.66;5228656;28;20201;-63
2023/03/26 10:59:12;;;;;;;2.55;2.30;;;11.30;99.90;;;11.85;98.07;96653.88;5228483;28;20271;-63
2023/03/26 11:01:55;;;;;;;4.32;2.47;;;11.50;99.90;;;12.11;99.35;96677.75;5230611;28;20193;-63
2023/03/26 11:04:43;;;;;;;2.53;2.33;;;11.70;99.90;;;12.25;96.80;96664.53;5225929;28;20316;-63
2023/03/26 11:07:24;;;;;;;2.50;1.83;;;11.80;99.90;;;12.27;93.02;96667.97;5231479;28;20316;-62
2023/03/26 11:10:05;;;;;;;2.35;2.13;;;11.90;99.90;;;12.50;98.41;96676.38;5232860;28;20582;-63
2023/03/26 11:12:46;;;;;;;2.58;2.28;;;12.00;99.90;;;12.68;95.15;96671.81;5229293;28;20890;-63
2023/03/26 11:15:28;;;;;;;2.50;2.30;;;12.30;99.90;;;12.81;93.46;96666.19;5228833;28;20315;-64
2023/03/26 11:18:12;;;;;;;3.55;2.20;;;12.40;99.90;;;12.83;92.66;96666.25;5227843;28;20197;-63
2023/03/26 11:20:51;;;;;;;2.83;2.13;;;12.30;99.90;;;12.81;89.32;96673.03;5225344;28;20606;-63
2023/03/26 11:23:35;;;;;;;2.38;2.17;;;12.20;99.90;;;12.74;89.73;96671.13;5225540;28;20633;-63
2023/03/26 11:26:16;;;;;;;3.10;2.20;;;12.00;99.90;;;12.59;91.82;96672.41;5229633;28;20231;-63